Tallahassee, FL

3:25 AM EDT on September 16, 2014 (GMT -0400)
Rickards High School WeatherSTEM | Change Station
CLOSE
Current Station
Personal Weather Station
Location: Tallahassee, FL
Elevation: 138 ft
Nearby Weather Stations

Elev 138 ft 30.41 °N, 84.26 °W | Updated 5 minutes ago

Overcast
Overcast
77.2 °F
Feels Like 78 °F
N
0.0
Wind Variable Wind from SE
Gusts 2.0 mph

Today
High -- | Low -- °F
--% Chance of Precip.
Yesterday
High -- | Low -- °F
Precip. -- in
7:22 AM 7:41 PM
Waning Gibbous, 48% visible
Pressure 30.07 in
Visibility 10.0 miles
Clouds Few 2300 ft
Overcast 4600 ft
Heat Index 78 °F
Dew Point 76 °F
Humidity 96%
Rainfall 0.00 in
Snow Depth Not available.
UV 0.0 out of 12
Pollen 8.10 out of 12
Air Quality Not available.
Flu Activity Not available.
METAR KTLH 160653Z AUTO 23006KT 10SM FEW023 OVC046 25/24 A3007 RMK AO2 SLP181 T02500239 $

More Conditions Fewer Conditions

Pressure 30.07 in
Visibility 10.0 miles
Clouds Few 2300 ft
Overcast 4600 ft
Heat Index 78 °F
Dew Point 76 °F
Humidity 96%
Rainfall 0.00 in
Snow Depth Not available.
UV 0.0 out of 12
Pollen 8.10 out of 12
Air Quality Not available.
Flu Activity Not available.
METAR KTLH 160653Z AUTO 23006KT 10SM FEW023 OVC046 25/24 A3007 RMK AO2 SLP181 T02500239 $

More Conditions Fewer Conditions

10-Day Weather Forecast

Almanac

Astronomy

Sep. 16, 2014 Rise Set
Actual Time 7:22 AM EDT 7:41 PM EDT
Civil Twilight 6:57 AM EDT 8:05 PM EDT
Nautical Twilight 6:29 AM EDT 8:33 PM EDT
Astronomical Twilight 6:01 AM EDT 9:01 PM EDT
Moon 12:48 AM EDT 2:46 PM EDT
Length of Visible Light 13h 07m
Length of Day
12h 19m
Tomorrow will be 1m 49s shorter.
Waning Gibbous, 48% of the Moon is Illuminated
Today
Waning Gibbous
Sep 24
New
Oct 1
First Quarter
Oct 8
Full
Oct 15
Last Quarter

Today's Extremes

State Highs State Lows

Community

WunderPhotos

Upload Photos

1,753,699 photos uploaded!

Nearby

Snow Depth

Station Depth Elevation
No new snow has been reported.

Earthquake Activity

City Distance Mag. Time & Date
No recent earthquake activity has been reported nearby.
Minimum magnitude displayed is 2.5.

Coastal Water Temperatures

Place Temperature
Apalachicola, FL 84.9 °F
Panama City, FL 87.1 °F

Nearby Weather Stations